createdAt,value
2019-03-23T00:01:56.669Z,10.10
2019-03-23T00:04:26.838Z,10.20
2019-03-23T00:06:57.143Z,10.20
2019-03-23T00:09:27.473Z,10.20
2019-03-23T00:11:57.841Z,10.20
2019-03-23T00:14:28.045Z,10.30
2019-03-23T00:16:58.419Z,10.30
2019-03-23T00:19:28.786Z,10.30
2019-03-23T00:21:59.202Z,10.30
2019-03-23T00:24:29.442Z,10.30
2019-03-23T00:26:59.832Z,10.30
2019-03-23T00:29:30.105Z,10.30
2019-03-23T00:32:00.438Z,10.20
2019-03-23T00:34:31.049Z,10.20
2019-03-23T00:37:01.255Z,10.20
2019-03-23T00:39:31.547Z,10.20
2019-03-23T00:42:02.017Z,10.20
2019-03-23T00:44:32.309Z,10.20
2019-03-23T00:47:02.541Z,10.20
2019-03-23T00:49:32.886Z,10.10
2019-03-23T00:52:03.255Z,10.00
2019-03-23T00:54:33.581Z,9.90
2019-03-23T00:57:03.901Z,9.80
2019-03-23T00:59:34.261Z,9.80
2019-03-23T01:02:04.509Z,9.70
2019-03-23T01:04:34.723Z,9.60
2019-03-23T01:07:05.273Z,9.60
2019-03-23T01:09:35.613Z,9.60
2019-03-23T01:12:05.959Z,9.70
2019-03-23T01:14:36.179Z,9.60
2019-03-23T01:17:06.511Z,9.60
2019-03-23T01:19:36.837Z,9.50
2019-03-23T01:22:07.085Z,9.40
2019-03-23T01:24:37.283Z,9.40
2019-03-23T01:27:07.469Z,9.30
2019-03-23T01:29:37.811Z,9.20
2019-03-23T01:32:08.130Z,9.20
2019-03-23T01:34:38.392Z,9.10
2019-03-23T01:37:08.701Z,9.10
2019-03-23T01:39:38.923Z,9.00
2019-03-23T01:42:09.179Z,9.00
2019-03-23T01:44:39.560Z,9.00
2019-03-23T01:47:12.254Z,8.90
2019-03-23T01:49:42.529Z,8.90
2019-03-23T01:52:12.890Z,8.90
2019-03-23T01:54:43.269Z,8.90
2019-03-23T01:57:13.566Z,8.90
2019-03-23T01:59:43.934Z,8.90
2019-03-23T02:02:14.272Z,8.90
2019-03-23T02:04:44.542Z,8.80
2019-03-23T02:07:14.882Z,8.80
2019-03-23T02:09:45.190Z,8.70
2019-03-23T02:12:15.489Z,8.70
2019-03-23T02:14:45.806Z,8.70
2019-03-23T02:17:16.085Z,8.70
2019-03-23T02:19:46.310Z,8.60
2019-03-23T02:22:16.697Z,8.60
2019-03-23T02:24:46.905Z,8.50
2019-03-23T02:27:17.571Z,8.50
2019-03-23T02:29:47.913Z,8.40
2019-03-23T02:32:18.237Z,8.40
2019-03-23T02:34:48.573Z,8.40
2019-03-23T02:37:27.599Z,8.30
2019-03-23T02:39:50.736Z,8.30
2019-03-23T02:42:21.067Z,8.20
2019-03-23T02:44:51.377Z,8.20
2019-03-23T02:47:21.635Z,8.20
2019-03-23T02:49:51.952Z,8.10
2019-03-23T02:52:22.341Z,8.10
2019-03-23T02:54:52.659Z,8.00
2019-03-23T02:57:22.975Z,8.00
2019-03-23T02:59:53.338Z,7.90
2019-03-23T03:02:24.301Z,7.90
2019-03-23T03:04:54.510Z,7.90
2019-03-23T03:07:24.781Z,7.90
2019-03-23T03:09:55.043Z,7.80
2019-03-23T03:12:25.290Z,7.80
2019-03-23T03:14:55.578Z,7.80
2019-03-23T03:17:26.198Z,7.90
2019-03-23T03:19:56.461Z,7.90
2019-03-23T03:22:26.807Z,7.90
2019-03-23T03:24:57.215Z,7.90
2019-03-23T03:27:27.394Z,7.90
2019-03-23T03:29:57.774Z,7.90
2019-03-23T03:32:28.019Z,7.90
2019-03-23T03:34:58.305Z,7.90
2019-03-23T03:37:28.609Z,7.90
2019-03-23T03:39:58.852Z,7.90
2019-03-23T03:42:29.664Z,7.90
2019-03-23T03:45:00.023Z,7.90
2019-03-23T03:47:30.274Z,7.80
2019-03-23T03:50:00.551Z,7.80
2019-03-23T03:52:30.763Z,7.70
2019-03-23T03:55:01.130Z,7.70
2019-03-23T03:57:31.374Z,7.60
2019-03-23T04:00:01.768Z,7.60
2019-03-23T04:02:32.013Z,7.50
2019-03-23T04:05:02.298Z,7.50
2019-03-23T04:07:32.583Z,7.50
2019-03-23T04:10:02.878Z,7.50
2019-03-23T04:12:34.918Z,7.60
2019-03-23T04:15:05.766Z,7.60
2019-03-23T04:17:36.071Z,7.60
2019-03-23T04:20:06.865Z,7.60
2019-03-23T04:22:37.204Z,7.60
2019-03-23T04:25:07.972Z,7.50
2019-03-23T04:27:38.292Z,7.50
2019-03-23T04:30:08.742Z,7.50
2019-03-23T04:32:38.957Z,7.50
2019-03-23T04:35:09.359Z,7.60
2019-03-23T04:37:39.568Z,7.60
2019-03-23T04:40:11.078Z,7.60
2019-03-23T04:42:41.341Z,7.60
2019-03-23T04:45:11.793Z,7.60
2019-03-23T04:47:42.015Z,7.50
2019-03-23T04:50:14.784Z,7.60
2019-03-23T04:52:45.129Z,7.50
2019-03-23T04:55:15.439Z,7.50
2019-03-23T04:57:45.781Z,7.50
2019-03-23T05:00:16.912Z,7.50
2019-03-23T05:02:47.244Z,7.40
2019-03-23T05:05:17.531Z,7.40
2019-03-23T05:07:47.864Z,7.30
2019-03-23T05:10:18.097Z,7.30
2019-03-23T05:12:48.429Z,7.30
2019-03-23T05:15:18.754Z,7.30
2019-03-23T05:17:48.971Z,7.20
2019-03-23T05:20:30.493Z,7.20
2019-03-23T05:23:01.031Z,7.20
2019-03-23T05:25:31.785Z,7.20
2019-03-23T05:28:02.085Z,7.30
2019-03-23T05:30:32.439Z,7.30
2019-03-23T05:33:02.762Z,7.30
2019-03-23T05:35:33.093Z,7.40
2019-03-23T05:38:03.409Z,7.40
2019-03-23T05:40:33.728Z,7.40
2019-03-23T05:43:04.473Z,7.40
2019-03-23T05:45:34.863Z,7.50
2019-03-23T05:48:05.205Z,7.60
2019-03-23T05:50:35.505Z,7.60
2019-03-23T05:53:05.804Z,7.70
2019-03-23T05:55:36.005Z,7.70
2019-03-23T05:58:06.341Z,7.80
2019-03-23T06:00:36.628Z,7.80
2019-03-23T06:03:06.873Z,7.80
2019-03-23T06:05:37.232Z,7.90
2019-03-23T06:08:07.522Z,7.90
2019-03-23T06:10:37.844Z,7.90
2019-03-23T06:13:08.273Z,8.00
2019-03-23T06:15:38.600Z,8.00
2019-03-23T06:18:08.878Z,8.10
2019-03-23T06:20:39.065Z,8.20
2019-03-23T06:23:09.341Z,8.20
2019-03-23T06:25:39.610Z,8.20
2019-03-23T06:28:10.007Z,8.30
2019-03-23T06:30:40.426Z,8.40
2019-03-23T06:33:10.759Z,8.40
2019-03-23T06:35:41.042Z,8.50
2019-03-23T06:38:11.691Z,8.60
2019-03-23T06:40:41.998Z,8.60
2019-03-23T06:43:12.310Z,8.70
2019-03-23T06:45:42.617Z,8.80
2019-03-23T06:48:12.979Z,8.80
2019-03-23T06:50:43.322Z,8.90
2019-03-23T06:53:13.682Z,9.00
2019-03-23T06:55:44.038Z,9.00
2019-03-23T06:58:14.383Z,9.00
2019-03-23T07:00:44.658Z,9.10
2019-03-23T07:03:15.009Z,9.10
2019-03-23T07:05:45.290Z,9.20
2019-03-23T07:08:15.665Z,9.20
2019-03-23T07:10:45.890Z,9.30
2019-03-23T07:13:16.296Z,9.40
2019-03-23T07:15:46.638Z,9.40
2019-03-23T07:18:16.989Z,9.50
2019-03-23T07:20:47.205Z,9.50
2019-03-23T07:23:17.454Z,9.60
2019-03-23T07:25:47.701Z,9.60
2019-03-23T07:28:18.046Z,9.70
2019-03-23T07:30:48.346Z,9.80
2019-03-23T07:33:20.909Z,9.80
2019-03-23T07:35:51.453Z,9.90
2019-03-23T07:38:21.794Z,10.00
2019-03-23T07:40:52.019Z,10.00
2019-03-23T07:43:22.231Z,10.10
2019-03-23T07:45:52.578Z,10.20
2019-03-23T07:48:22.949Z,10.30
2019-03-23T07:50:53.238Z,10.30
2019-03-23T07:53:23.567Z,10.40
2019-03-23T07:55:53.930Z,10.50
2019-03-23T07:58:24.226Z,10.60
2019-03-23T08:00:54.537Z,10.80
2019-03-23T08:03:24.806Z,10.90
2019-03-23T08:05:55.201Z,11.10
2019-03-23T08:08:27.769Z,11.20
2019-03-23T08:10:58.166Z,11.40
2019-03-23T08:13:28.555Z,11.50
2019-03-23T08:15:58.918Z,11.60
2019-03-23T08:18:29.220Z,11.80
2019-03-23T08:20:59.622Z,12.10
2019-03-23T08:23:29.829Z,12.30
2019-03-23T08:26:00.033Z,12.50
2019-03-23T08:28:32.383Z,12.80
2019-03-23T08:31:02.285Z,13.00
2019-03-23T08:33:32.655Z,13.30
2019-03-23T08:36:02.833Z,13.60
2019-03-23T08:38:33.185Z,14.00
2019-03-23T08:41:03.585Z,14.30
2019-03-23T08:43:33.949Z,14.60
2019-03-23T08:46:04.290Z,15.10
2019-03-23T08:48:34.554Z,15.60
2019-03-23T08:51:04.751Z,16.20
2019-03-23T08:53:34.897Z,17.00
2019-03-23T08:56:05.133Z,17.70
2019-03-23T08:58:33.062Z,18.60
2019-03-23T09:01:03.462Z,19.30
2019-03-23T09:03:33.843Z,19.80
2019-03-23T09:06:04.234Z,20.40
2019-03-23T09:08:34.533Z,21.10
2019-03-23T09:11:04.734Z,21.50
2019-03-23T09:13:40.678Z,21.90
2019-03-23T09:16:07.006Z,22.30
2019-03-23T09:18:37.301Z,22.60
2019-03-23T09:21:07.567Z,23.00
2019-03-23T09:23:37.798Z,23.20
2019-03-23T09:26:08.013Z,23.20
2019-03-23T09:28:38.237Z,23.30
2019-03-23T09:31:08.393Z,23.80
2019-03-23T09:33:38.759Z,24.20
2019-03-23T09:36:09.014Z,24.60
2019-03-23T09:38:39.301Z,24.70
2019-03-23T09:41:09.641Z,24.60
2019-03-23T09:43:39.850Z,24.90
2019-03-23T09:46:10.165Z,25.20
2019-03-23T09:48:40.529Z,25.50
2019-03-23T09:51:10.825Z,25.90
2019-03-23T09:53:41.131Z,26.10
2019-03-23T09:56:11.402Z,26.30
2019-03-23T09:58:41.789Z,26.20
2019-03-23T10:01:12.171Z,26.30
2019-03-23T10:03:42.974Z,26.50
2019-03-23T10:06:13.602Z,26.70
2019-03-23T10:08:46.250Z,26.90
2019-03-23T10:11:15.881Z,26.80
2019-03-23T10:13:46.168Z,26.60
2019-03-23T10:16:16.483Z,26.10
2019-03-23T10:18:46.694Z,26.00
2019-03-23T10:21:16.910Z,25.90
2019-03-23T10:23:47.166Z,26.30
2019-03-23T10:26:17.514Z,26.70
2019-03-23T10:28:47.711Z,27.20
2019-03-23T10:31:17.902Z,27.60
2019-03-23T10:33:48.082Z,27.90
2019-03-23T10:36:18.430Z,28.30
2019-03-23T10:38:48.645Z,28.70
2019-03-23T10:41:18.885Z,29.00
2019-03-23T10:43:49.196Z,29.30
2019-03-23T10:46:19.830Z,29.50
2019-03-23T10:48:50.105Z,29.80
2019-03-23T10:51:20.355Z,30.20
2019-03-23T10:53:50.857Z,30.50
2019-03-23T10:56:21.110Z,30.90
2019-03-23T10:58:51.326Z,31.10
2019-03-23T11:01:21.574Z,31.30
2019-03-23T11:03:51.914Z,31.40
2019-03-23T11:06:22.209Z,31.70
2019-03-23T11:08:52.561Z,31.90
2019-03-23T11:11:22.850Z,32.20
2019-03-23T11:13:53.058Z,32.30
2019-03-23T11:16:23.293Z,32.40
2019-03-23T11:18:54.490Z,32.50
2019-03-23T11:21:25.108Z,32.50
2019-03-23T11:23:55.381Z,32.60
2019-03-23T11:26:25.728Z,32.30
2019-03-23T11:28:56.907Z,32.20
2019-03-23T11:31:27.205Z,32.20
2019-03-23T11:33:57.557Z,32.20
2019-03-23T11:36:27.725Z,32.30
2019-03-23T11:38:57.923Z,32.30
2019-03-23T11:41:28.111Z,32.30
2019-03-23T11:43:58.453Z,32.30
2019-03-23T11:46:28.674Z,32.20
2019-03-23T11:48:59.275Z,32.00
2019-03-23T11:51:29.549Z,32.00
2019-03-23T11:53:59.753Z,32.10
2019-03-23T11:56:30.425Z,32.20
2019-03-23T11:59:01.485Z,32.20
2019-03-23T12:01:31.825Z,32.30
2019-03-23T12:04:02.090Z,32.40
2019-03-23T12:06:32.795Z,32.50
2019-03-23T12:09:04.712Z,32.70
2019-03-23T12:11:35.078Z,32.90
2019-03-23T12:14:05.521Z,32.90
2019-03-23T12:16:36.090Z,33.00
2019-03-23T12:19:06.401Z,33.00
2019-03-23T12:21:36.743Z,33.10
2019-03-23T12:24:08.946Z,32.90
2019-03-23T12:26:39.198Z,32.90
2019-03-23T12:29:09.398Z,32.80
2019-03-23T12:31:39.741Z,32.70
2019-03-23T12:34:09.981Z,32.70
2019-03-23T12:36:40.165Z,32.80
2019-03-23T12:39:10.375Z,32.80
2019-03-23T12:41:41.085Z,32.70
2019-03-23T12:44:11.289Z,32.50
2019-03-23T12:46:48.153Z,32.30
2019-03-23T12:49:13.306Z,32.30
2019-03-23T12:51:43.681Z,31.70
2019-03-23T12:54:14.013Z,31.60
2019-03-23T12:56:44.249Z,31.60
2019-03-23T12:59:14.585Z,31.70
2019-03-23T13:01:46.386Z,31.60
2019-03-23T13:04:16.733Z,31.50
2019-03-23T13:06:47.045Z,31.40
2019-03-23T13:09:17.271Z,31.20
2019-03-23T13:11:47.476Z,31.10
2019-03-23T13:14:17.713Z,31.00
2019-03-23T13:16:47.992Z,30.70
2019-03-23T13:19:18.597Z,30.40
2019-03-23T13:21:48.847Z,30.00
2019-03-23T13:24:19.135Z,29.70
2019-03-23T13:26:49.324Z,29.40
2019-03-23T13:29:19.603Z,28.90
2019-03-23T13:31:49.817Z,28.50
2019-03-23T13:34:20.082Z,28.20
2019-03-23T13:36:50.385Z,28.00
2019-03-23T13:39:20.586Z,27.70
2019-03-23T13:41:51.546Z,27.50
2019-03-23T13:44:21.903Z,27.30
2019-03-23T13:46:52.597Z,27.10
2019-03-23T13:49:22.848Z,26.90
2019-03-23T13:51:53.075Z,26.60
2019-03-23T13:54:23.233Z,26.40
2019-03-23T13:56:53.573Z,26.30
2019-03-23T13:59:23.857Z,26.20
2019-03-23T14:01:54.241Z,26.20
2019-03-23T14:04:24.598Z,26.20
2019-03-23T14:06:54.959Z,26.10
2019-03-23T14:09:25.194Z,26.00
2019-03-23T14:11:55.542Z,26.00
2019-03-23T14:14:25.779Z,25.80
2019-03-23T14:16:56.081Z,25.80
2019-03-23T14:19:26.438Z,25.70
2019-03-23T14:21:56.765Z,25.70
2019-03-23T14:24:27.065Z,25.70
2019-03-23T14:26:57.386Z,25.80
2019-03-23T14:29:27.681Z,25.80
2019-03-23T14:31:57.845Z,25.60
2019-03-23T14:34:28.127Z,25.40
2019-03-23T14:36:58.374Z,25.20
2019-03-23T14:39:28.661Z,25.00
2019-03-23T14:42:04.749Z,24.80
2019-03-23T14:44:31.225Z,24.60
2019-03-23T14:47:01.461Z,24.40
2019-03-23T14:49:32.826Z,24.30
2019-03-23T14:52:03.202Z,24.10
2019-03-23T14:54:33.588Z,24.00
2019-03-23T14:57:03.834Z,23.80
2019-03-23T14:59:33.985Z,23.60
2019-03-23T15:02:04.246Z,23.50
2019-03-23T15:04:34.517Z,23.30
2019-03-23T15:07:04.865Z,23.10
2019-03-23T15:09:35.154Z,23.00
2019-03-23T15:12:14.555Z,22.90
2019-03-23T15:14:37.337Z,22.80
2019-03-23T15:17:07.672Z,22.60
2019-03-23T15:19:37.926Z,22.60
2019-03-23T15:22:08.233Z,22.50
2019-03-23T15:24:38.510Z,22.30
2019-03-23T15:27:11.245Z,22.20
2019-03-23T15:29:41.596Z,22.10
2019-03-23T15:32:11.785Z,21.90
2019-03-23T15:34:42.096Z,21.80
2019-03-23T15:37:12.306Z,21.70
2019-03-23T15:39:42.522Z,21.60
2019-03-23T15:42:12.755Z,21.50
2019-03-23T15:44:42.996Z,21.40
2019-03-23T15:47:13.209Z,21.30
2019-03-23T15:49:43.534Z,21.20
2019-03-23T15:52:13.820Z,21.10
2019-03-23T15:54:44.114Z,20.90
2019-03-23T15:57:14.449Z,20.90
2019-03-23T15:59:44.737Z,20.80
2019-03-23T16:02:16.242Z,20.70
2019-03-23T16:04:46.506Z,20.60
2019-03-23T16:07:16.807Z,20.50
2019-03-23T16:09:47.186Z,20.50
2019-03-23T16:12:17.533Z,20.40
2019-03-23T16:14:47.957Z,20.20
2019-03-23T16:17:18.201Z,20.10
2019-03-23T16:19:48.547Z,20.00
2019-03-23T16:22:18.862Z,20.00
2019-03-23T16:24:49.313Z,19.90
2019-03-23T16:27:19.624Z,19.80
2019-03-23T16:29:49.846Z,19.70
2019-03-23T16:32:20.185Z,19.60
2019-03-23T16:34:50.413Z,19.60
2019-03-23T16:37:20.732Z,19.50
2019-03-23T16:39:52.053Z,19.40
2019-03-23T16:42:22.466Z,19.30
2019-03-23T16:44:52.703Z,19.20
2019-03-23T16:47:22.999Z,19.10
2019-03-23T16:49:53.247Z,19.00
2019-03-23T16:52:23.496Z,19.00
2019-03-23T16:54:53.785Z,18.90
2019-03-23T16:57:24.097Z,18.80
2019-03-23T16:59:54.438Z,18.70
2019-03-23T17:02:24.834Z,18.60
2019-03-23T17:04:55.145Z,18.50
2019-03-23T17:07:25.437Z,18.50
2019-03-23T17:09:55.807Z,18.30
2019-03-23T17:12:26.134Z,18.30
2019-03-23T17:14:56.565Z,18.20
2019-03-23T17:17:26.929Z,18.10
2019-03-23T17:19:57.260Z,18.00
2019-03-23T17:22:27.443Z,17.90
2019-03-23T17:24:57.714Z,17.80
2019-03-23T17:27:28.050Z,17.80
2019-03-23T17:29:58.418Z,17.70
2019-03-23T17:32:28.785Z,17.60
2019-03-23T17:34:59.020Z,17.50
2019-03-23T17:37:29.228Z,17.40
2019-03-23T17:39:59.492Z,17.30
2019-03-23T17:42:29.873Z,17.30
2019-03-23T17:45:00.326Z,17.20
2019-03-23T17:47:30.555Z,17.10
2019-03-23T17:50:00.787Z,16.90
2019-03-23T17:52:31.317Z,16.80
2019-03-23T17:55:01.584Z,16.80
2019-03-23T17:57:31.885Z,16.60
2019-03-23T18:00:02.162Z,16.50
2019-03-23T18:02:32.497Z,16.50
2019-03-23T18:05:02.654Z,16.40
2019-03-23T18:07:33.031Z,16.30
2019-03-23T18:10:04.222Z,16.30
2019-03-23T18:12:34.526Z,16.20
2019-03-23T18:15:04.917Z,16.10
2019-03-23T18:17:35.407Z,16.10
2019-03-23T18:20:06.224Z,16.00
2019-03-23T18:22:36.583Z,15.90
2019-03-23T18:25:07.860Z,15.80
2019-03-23T18:27:40.198Z,15.80
2019-03-23T18:30:41.606Z,15.70
2019-03-23T18:33:12.173Z,15.70
2019-03-23T18:35:42.651Z,15.60
2019-03-23T18:38:12.961Z,15.60
2019-03-23T18:40:43.301Z,15.50
2019-03-23T18:43:13.591Z,15.50
2019-03-23T18:45:43.837Z,15.50
2019-03-23T18:48:14.101Z,15.50
2019-03-23T18:50:44.321Z,15.50
2019-03-23T18:53:14.725Z,15.50
2019-03-23T18:55:44.962Z,15.40
2019-03-23T18:58:15.394Z,15.30
2019-03-23T19:00:45.769Z,15.30
2019-03-23T19:03:16.125Z,15.10
2019-03-23T19:05:47.722Z,15.10
2019-03-23T19:08:17.990Z,15.00
2019-03-23T19:10:48.174Z,14.90
2019-03-23T19:13:18.462Z,14.80
2019-03-23T19:15:48.759Z,14.70
2019-03-23T19:18:19.124Z,14.70
2019-03-23T19:20:49.378Z,14.70
2019-03-23T19:23:19.737Z,14.60
2019-03-23T19:25:50.101Z,14.60
2019-03-23T19:28:20.446Z,14.60
2019-03-23T19:30:50.767Z,14.60
2019-03-23T19:33:21.113Z,14.50
2019-03-23T19:35:51.387Z,14.50
2019-03-23T19:38:21.590Z,14.40
2019-03-23T19:40:51.915Z,14.30
2019-03-23T19:43:22.610Z,14.30
2019-03-23T19:45:52.882Z,14.30
2019-03-23T19:48:23.257Z,14.30
2019-03-23T19:50:53.599Z,14.30
2019-03-23T19:53:23.949Z,14.30
2019-03-23T19:55:54.264Z,14.30
2019-03-23T19:58:24.616Z,14.20
2019-03-23T20:00:54.914Z,14.10
2019-03-23T20:03:25.294Z,14.10
2019-03-23T20:05:57.118Z,13.90
2019-03-23T20:08:27.522Z,13.80
2019-03-23T20:10:57.780Z,13.80
2019-03-23T20:13:27.987Z,13.70
2019-03-23T20:15:58.322Z,13.60
2019-03-23T20:18:28.710Z,13.50
2019-03-23T20:20:59.102Z,13.50
2019-03-23T20:23:29.371Z,13.40
2019-03-23T20:25:59.672Z,13.40
2019-03-23T20:28:29.929Z,13.40
2019-03-23T20:31:00.263Z,13.40
2019-03-23T20:33:30.497Z,13.40
2019-03-23T20:36:01.139Z,13.30
2019-03-23T20:38:33.278Z,13.20
2019-03-23T20:41:03.615Z,13.20
2019-03-23T20:43:33.975Z,13.20
2019-03-23T20:46:04.203Z,13.10
2019-03-23T20:48:36.514Z,13.10
2019-03-23T20:51:06.966Z,13.00
2019-03-23T20:53:37.295Z,13.00
2019-03-23T20:56:07.642Z,12.90
2019-03-23T20:58:37.901Z,12.90
2019-03-23T21:01:08.133Z,12.80
2019-03-23T21:03:38.354Z,12.80
2019-03-23T21:06:08.694Z,12.70
2019-03-23T21:08:39.068Z,12.70
2019-03-23T21:11:09.378Z,12.60
2019-03-23T21:13:39.655Z,12.60
2019-03-23T21:16:09.859Z,12.60
2019-03-23T21:18:42.393Z,12.60
2019-03-23T21:21:12.685Z,12.60
2019-03-23T21:23:43.010Z,12.50
2019-03-23T21:26:14.537Z,12.50
2019-03-23T21:28:44.950Z,12.40
2019-03-23T21:31:15.276Z,12.30
2019-03-23T21:33:45.627Z,12.30
2019-03-23T21:36:17.403Z,12.20
2019-03-23T21:38:47.718Z,12.20
2019-03-23T21:41:17.990Z,12.20
2019-03-23T21:43:48.320Z,12.20
2019-03-23T21:46:18.570Z,12.20
2019-03-23T21:48:51.510Z,12.20
2019-03-23T21:51:22.991Z,12.10
2019-03-23T21:53:53.405Z,12.10
2019-03-23T21:56:23.778Z,12.10
2019-03-23T21:58:54.098Z,12.10
2019-03-23T22:01:24.477Z,12.10
2019-03-23T22:03:54.734Z,12.10
2019-03-23T22:06:25.427Z,12.00
2019-03-23T22:08:55.973Z,12.00
2019-03-23T22:11:26.299Z,12.00
2019-03-23T22:13:56.589Z,12.00
2019-03-23T22:16:27.646Z,11.90
2019-03-23T22:18:59.899Z,11.90
2019-03-23T22:21:31.537Z,11.90
2019-03-23T22:24:02.176Z,11.90
2019-03-23T22:26:32.469Z,11.80
2019-03-23T22:29:02.678Z,11.80
2019-03-23T22:31:33.298Z,11.80
2019-03-23T22:34:03.662Z,11.70
2019-03-23T22:36:35.649Z,11.70
2019-03-23T22:39:07.543Z,11.60
2019-03-23T22:41:37.910Z,11.60
2019-03-23T22:44:08.238Z,11.50
2019-03-23T22:46:38.476Z,11.50
2019-03-23T22:49:08.774Z,11.50
2019-03-23T22:51:39.101Z,11.50
2019-03-23T22:54:09.511Z,11.40
2019-03-23T22:56:39.878Z,11.40
2019-03-23T22:59:10.118Z,11.40
2019-03-23T23:01:41.727Z,11.40
2019-03-23T23:04:12.310Z,11.40
2019-03-23T23:06:43.590Z,11.40
2019-03-23T23:09:13.961Z,11.40
2019-03-23T23:11:44.330Z,11.40
2019-03-23T23:14:15.469Z,11.40
2019-03-23T23:16:47.319Z,11.30
2019-03-23T23:19:17.716Z,11.30
2019-03-23T23:21:47.952Z,11.40
2019-03-23T23:24:18.245Z,11.40
2019-03-23T23:26:48.474Z,11.40
2019-03-23T23:29:18.844Z,11.50
2019-03-23T23:31:50.550Z,11.50
2019-03-23T23:34:24.507Z,11.60
2019-03-23T23:36:54.874Z,11.50
2019-03-23T23:39:29.282Z,11.50
2019-03-23T23:41:59.661Z,11.50
2019-03-23T23:44:29.962Z,11.40
2019-03-23T23:47:00.323Z,11.40
2019-03-23T23:49:30.706Z,11.30
2019-03-23T23:52:01.033Z,11.30
2019-03-23T23:54:32.816Z,11.30
2019-03-23T23:57:03.081Z,11.20
2019-03-23T23:59:33.333Z,11.20
